sensor_id;sensor_type;location;lat;lon;timestamp;temperature;humidity
19898;DHT22;10111;50.814;4.572;2023-02-28T00:01:14;2.10;99.90
19898;DHT22;10111;50.814;4.572;2023-02-28T00:03:41;2.20;99.90
19898;DHT22;10111;50.814;4.572;2023-02-28T00:06:07;2.10;99.90
19898;DHT22;10111;50.814;4.572;2023-02-28T00:08:35;2.00;99.90
19898;DHT22;10111;50.814;4.572;2023-02-28T00:11:02;1.80;99.90
19898;DHT22;10111;50.814;4.572;2023-02-28T00:13:28;1.80;99.90
19898;DHT22;10111;50.814;4.572;2023-02-28T00:16:09;2.00;99.90
19898;DHT22;10111;50.814;4.572;2023-02-28T00:18:35;1.80;99.90
19898;DHT22;10111;50.814;4.572;2023-02-28T00:21:01;1.90;99.90
19898;DHT22;10111;50.814;4.572;2023-02-28T00:23:28;2.00;99.90
19898;DHT22;10111;50.814;4.572;2023-02-28T00:25:53;1.90;99.90
19898;DHT22;10111;50.814;4.572;2023-02-28T00:28:19;1.70;99.90
19898;DHT22;10111;50.814;4.572;2023-02-28T00:30:45;1.80;99.90
19898;DHT22;10111;50.814;4.572;2023-02-28T00:33:11;1.70;99.90
19898;DHT22;10111;50.814;4.572;2023-02-28T00:35:37;1.80;99.90
19898;DHT22;10111;50.814;4.572;2023-02-28T00:38:02;1.60;99.90
19898;DHT22;10111;50.814;4.572;2023-02-28T00:40:29;1.70;99.90
19898;DHT22;10111;50.814;4.572;2023-02-28T00:42:55;1.80;99.90
19898;DHT22;10111;50.814;4.572;2023-02-28T00:45:20;1.70;99.90
19898;DHT22;10111;50.814;4.572;2023-02-28T00:47:46;1.80;99.90
19898;DHT22;10111;50.814;4.572;2023-02-28T00:50:19;2.00;99.90
19898;DHT22;10111;50.814;4.572;2023-02-28T00:52:46;1.80;99.90
19898;DHT22;10111;50.814;4.572;2023-02-28T00:55:12;1.80;99.90
19898;DHT22;10111;50.814;4.572;2023-02-28T00:57:37;1.70;99.90
19898;DHT22;10111;50.814;4.572;2023-02-28T01:00:04;1.60;99.90
19898;DHT22;10111;50.814;4.572;2023-02-28T01:02:30;1.70;99.90
19898;DHT22;10111;50.814;4.572;2023-02-28T01:04:55;1.60;99.90
19898;DHT22;10111;50.814;4.572;2023-02-28T01:07:22;1.90;99.90
19898;DHT22;10111;50.814;4.572;2023-02-28T01:09:48;2.00;99.90
19898;DHT22;10111;50.814;4.572;2023-02-28T01:12:13;2.00;99.90
19898;DHT22;10111;50.814;4.572;2023-02-28T01:14:39;1.80;99.90
19898;DHT22;10111;50.814;4.572;2023-02-28T01:17:05;1.80;99.90
19898;DHT22;10111;50.814;4.572;2023-02-28T01:19:30;1.70;99.90
19898;DHT22;10111;50.814;4.572;2023-02-28T01:22:03;1.60;99.90
19898;DHT22;10111;50.814;4.572;2023-02-28T01:24:32;1.70;99.90
19898;DHT22;10111;50.814;4.572;2023-02-28T01:26:58;1.70;99.90
19898;DHT22;10111;50.814;4.572;2023-02-28T01:29:23;1.60;99.90
19898;DHT22;10111;50.814;4.572;2023-02-28T01:31:49;1.50;99.90
19898;DHT22;10111;50.814;4.572;2023-02-28T01:34:15;1.50;99.90
19898;DHT22;10111;50.814;4.572;2023-02-28T01:36:41;1.40;99.90
19898;DHT22;10111;50.814;4.572;2023-02-28T01:39:07;1.30;99.90
19898;DHT22;10111;50.814;4.572;2023-02-28T01:41:34;1.30;99.90
19898;DHT22;10111;50.814;4.572;2023-02-28T01:44:06;1.30;99.90
19898;DHT22;10111;50.814;4.572;2023-02-28T01:46:34;1.30;99.90
19898;DHT22;10111;50.814;4.572;2023-02-28T01:49:13;1.30;99.90
19898;DHT22;10111;50.814;4.572;2023-02-28T01:51:52;1.30;99.90
19898;DHT22;10111;50.814;4.572;2023-02-28T01:54:27;1.30;99.90
19898;DHT22;10111;50.814;4.572;2023-02-28T01:57:15;1.40;99.90
19898;DHT22;10111;50.814;4.572;2023-02-28T01:59:49;1.20;99.90
19898;DHT22;10111;50.814;4.572;2023-02-28T02:02:17;1.30;99.90
19898;DHT22;10111;50.814;4.572;2023-02-28T02:04:54;1.40;99.90
19898;DHT22;10111;50.814;4.572;2023-02-28T02:07:20;1.30;99.90
19898;DHT22;10111;50.814;4.572;2023-02-28T02:09:46;1.20;99.90
19898;DHT22;10111;50.814;4.572;2023-02-28T02:12:27;1.30;99.90
19898;DHT22;10111;50.814;4.572;2023-02-28T02:15:03;1.20;99.90
19898;DHT22;10111;50.814;4.572;2023-02-28T02:17:38;1.20;99.90
19898;DHT22;10111;50.814;4.572;2023-02-28T02:25:39;1.20;99.90
19898;DHT22;10111;50.814;4.572;2023-02-28T02:34:20;1.10;99.90
19898;DHT22;10111;50.814;4.572;2023-02-28T02:37:12;1.00;99.90
19898;DHT22;10111;50.814;4.572;2023-02-28T02:42:55;1.00;99.90
19898;DHT22;10111;50.814;4.572;2023-02-28T02:45:42;1.00;99.90
19898;DHT22;10111;50.814;4.572;2023-02-28T02:48:13;0.80;99.90
19898;DHT22;10111;50.814;4.572;2023-02-28T02:50:46;1.00;99.90
19898;DHT22;10111;50.814;4.572;2023-02-28T02:53:16;1.00;99.90
19898;DHT22;10111;50.814;4.572;2023-02-28T02:55:47;0.90;99.90
19898;DHT22;10111;50.814;4.572;2023-02-28T02:58:22;0.80;99.90
19898;DHT22;10111;50.814;4.572;2023-02-28T03:00:52;1.00;99.90
19898;DHT22;10111;50.814;4.572;2023-02-28T03:03:19;0.90;99.90
19898;DHT22;10111;50.814;4.572;2023-02-28T03:05:59;0.90;99.90
19898;DHT22;10111;50.814;4.572;2023-02-28T03:08:28;0.80;99.90
19898;DHT22;10111;50.814;4.572;2023-02-28T03:11:01;0.90;99.90
19898;DHT22;10111;50.814;4.572;2023-02-28T03:21:59;0.90;99.90
19898;DHT22;10111;50.814;4.572;2023-02-28T03:24:53;0.90;99.90
19898;DHT22;10111;50.814;4.572;2023-02-28T03:27:33;1.00;99.90
19898;DHT22;10111;50.814;4.572;2023-02-28T03:32:57;1.00;99.90
19898;DHT22;10111;50.814;4.572;2023-02-28T03:35:27;0.90;99.90
19898;DHT22;10111;50.814;4.572;2023-02-28T03:38:03;1.00;99.90
19898;DHT22;10111;50.814;4.572;2023-02-28T03:40:32;0.70;99.90
19898;DHT22;10111;50.814;4.572;2023-02-28T03:43:03;0.70;99.90
19898;DHT22;10111;50.814;4.572;2023-02-28T03:45:33;0.80;99.90
19898;DHT22;10111;50.814;4.572;2023-02-28T03:48:12;0.40;99.90
19898;DHT22;10111;50.814;4.572;2023-02-28T03:50:42;0.40;99.90
19898;DHT22;10111;50.814;4.572;2023-02-28T03:55:45;0.40;99.90
19898;DHT22;10111;50.814;4.572;2023-02-28T04:01:03;0.30;99.90
19898;DHT22;10111;50.814;4.572;2023-02-28T04:03:37;0.60;99.90
19898;DHT22;10111;50.814;4.572;2023-02-28T04:06:04;0.60;99.90
19898;DHT22;10111;50.814;4.572;2023-02-28T04:08:31;0.40;99.90
19898;DHT22;10111;50.814;4.572;2023-02-28T04:11:01;0.50;99.90
19898;DHT22;10111;50.814;4.572;2023-02-28T04:13:29;0.60;99.90
19898;DHT22;10111;50.814;4.572;2023-02-28T04:15:55;0.80;99.90
19898;DHT22;10111;50.814;4.572;2023-02-28T04:18:20;0.50;99.90
19898;DHT22;10111;50.814;4.572;2023-02-28T04:20:46;0.60;99.90
19898;DHT22;10111;50.814;4.572;2023-02-28T04:23:11;0.60;99.90
19898;DHT22;10111;50.814;4.572;2023-02-28T04:25:37;0.70;99.90
19898;DHT22;10111;50.814;4.572;2023-02-28T04:28:05;0.80;99.90
19898;DHT22;10111;50.814;4.572;2023-02-28T04:30:31;0.70;99.90
19898;DHT22;10111;50.814;4.572;2023-02-28T04:32:58;0.70;99.90
19898;DHT22;10111;50.814;4.572;2023-02-28T04:35:24;0.70;99.90
19898;DHT22;10111;50.814;4.572;2023-02-28T04:37:49;0.70;99.90
19898;DHT22;10111;50.814;4.572;2023-02-28T04:40:15;0.60;99.90
19898;DHT22;10111;50.814;4.572;2023-02-28T04:42:41;0.70;99.90
19898;DHT22;10111;50.814;4.572;2023-02-28T04:45:07;0.80;99.90
19898;DHT22;10111;50.814;4.572;2023-02-28T04:47:35;0.70;99.90
19898;DHT22;10111;50.814;4.572;2023-02-28T04:50:01;0.60;99.90
19898;DHT22;10111;50.814;4.572;2023-02-28T04:52:27;0.70;99.90
19898;DHT22;10111;50.814;4.572;2023-02-28T04:54:53;0.60;99.90
19898;DHT22;10111;50.814;4.572;2023-02-28T04:57:18;0.70;99.90
19898;DHT22;10111;50.814;4.572;2023-02-28T04:59:44;0.50;99.90
19898;DHT22;10111;50.814;4.572;2023-02-28T05:02:10;0.50;99.90
19898;DHT22;10111;50.814;4.572;2023-02-28T05:04:36;0.60;99.90
19898;DHT22;10111;50.814;4.572;2023-02-28T05:07:02;0.60;99.90
19898;DHT22;10111;50.814;4.572;2023-02-28T05:09:28;0.70;99.90
19898;DHT22;10111;50.814;4.572;2023-02-28T05:11:54;0.50;99.90
19898;DHT22;10111;50.814;4.572;2023-02-28T05:14:20;0.40;99.90
19898;DHT22;10111;50.814;4.572;2023-02-28T05:16:46;0.60;99.90
19898;DHT22;10111;50.814;4.572;2023-02-28T05:19:11;0.40;99.90
19898;DHT22;10111;50.814;4.572;2023-02-28T05:21:48;0.60;99.90
19898;DHT22;10111;50.814;4.572;2023-02-28T05:24:14;0.60;99.90
19898;DHT22;10111;50.814;4.572;2023-02-28T05:26:42;0.50;99.90
19898;DHT22;10111;50.814;4.572;2023-02-28T05:29:08;0.60;99.90
19898;DHT22;10111;50.814;4.572;2023-02-28T05:31:35;0.50;99.90
19898;DHT22;10111;50.814;4.572;2023-02-28T05:34:01;0.50;99.90
19898;DHT22;10111;50.814;4.572;2023-02-28T05:36:26;0.70;99.90
19898;DHT22;10111;50.814;4.572;2023-02-28T05:38:52;0.70;99.90
19898;DHT22;10111;50.814;4.572;2023-02-28T05:41:19;0.80;99.90
19898;DHT22;10111;50.814;4.572;2023-02-28T05:43:45;0.80;99.90
19898;DHT22;10111;50.814;4.572;2023-02-28T05:46:12;0.80;99.90
19898;DHT22;10111;50.814;4.572;2023-02-28T05:48:38;1.20;99.90
19898;DHT22;10111;50.814;4.572;2023-02-28T05:51:05;1.00;99.90
19898;DHT22;10111;50.814;4.572;2023-02-28T05:53:32;1.00;99.90
19898;DHT22;10111;50.814;4.572;2023-02-28T05:55:58;0.90;99.90
19898;DHT22;10111;50.814;4.572;2023-02-28T05:58:23;0.90;99.90
19898;DHT22;10111;50.814;4.572;2023-02-28T06:00:50;0.80;99.90
19898;DHT22;10111;50.814;4.572;2023-02-28T06:03:16;0.60;99.90
19898;DHT22;10111;50.814;4.572;2023-02-28T06:05:42;0.70;99.90
19898;DHT22;10111;50.814;4.572;2023-02-28T06:08:07;0.70;99.90
19898;DHT22;10111;50.814;4.572;2023-02-28T06:10:34;0.60;99.90
19898;DHT22;10111;50.814;4.572;2023-02-28T06:13:01;0.50;99.90
19898;DHT22;10111;50.814;4.572;2023-02-28T06:15:30;0.40;99.90
19898;DHT22;10111;50.814;4.572;2023-02-28T06:17:56;0.50;99.90
19898;DHT22;10111;50.814;4.572;2023-02-28T06:20:24;0.40;99.90
19898;DHT22;10111;50.814;4.572;2023-02-28T06:22:50;0.40;99.90
19898;DHT22;10111;50.814;4.572;2023-02-28T06:25:17;0.50;99.90
19898;DHT22;10111;50.814;4.572;2023-02-28T06:27:43;0.50;99.90
19898;DHT22;10111;50.814;4.572;2023-02-28T06:30:10;0.60;99.90
19898;DHT22;10111;50.814;4.572;2023-02-28T06:32:36;0.70;99.90
19898;DHT22;10111;50.814;4.572;2023-02-28T06:35:02;0.60;99.90
19898;DHT22;10111;50.814;4.572;2023-02-28T06:37:28;0.60;99.90
19898;DHT22;10111;50.814;4.572;2023-02-28T06:39:55;0.70;99.90
19898;DHT22;10111;50.814;4.572;2023-02-28T06:42:22;0.80;99.90
19898;DHT22;10111;50.814;4.572;2023-02-28T06:44:50;1.30;99.90
19898;DHT22;10111;50.814;4.572;2023-02-28T06:47:16;1.20;99.90
19898;DHT22;10111;50.814;4.572;2023-02-28T06:49:42;0.90;99.90
19898;DHT22;10111;50.814;4.572;2023-02-28T06:52:10;0.80;99.90
19898;DHT22;10111;50.814;4.572;2023-02-28T06:54:36;0.90;99.90
19898;DHT22;10111;50.814;4.572;2023-02-28T06:57:03;0.80;99.90
19898;DHT22;10111;50.814;4.572;2023-02-28T06:59:28;0.80;99.90
19898;DHT22;10111;50.814;4.572;2023-02-28T07:01:54;0.80;99.90
19898;DHT22;10111;50.814;4.572;2023-02-28T07:04:21;0.60;99.90
19898;DHT22;10111;50.814;4.572;2023-02-28T07:06:46;0.70;99.90
19898;DHT22;10111;50.814;4.572;2023-02-28T07:09:12;0.90;99.90
19898;DHT22;10111;50.814;4.572;2023-02-28T07:11:39;1.00;99.90
19898;DHT22;10111;50.814;4.572;2023-02-28T07:14:05;1.10;99.90
19898;DHT22;10111;50.814;4.572;2023-02-28T07:16:30;1.10;99.90
19898;DHT22;10111;50.814;4.572;2023-02-28T07:18:56;1.20;99.90
19898;DHT22;10111;50.814;4.572;2023-02-28T07:21:22;1.40;99.90
19898;DHT22;10111;50.814;4.572;2023-02-28T07:23:47;1.00;99.90
19898;DHT22;10111;50.814;4.572;2023-02-28T07:26:15;1.20;99.90
19898;DHT22;10111;50.814;4.572;2023-02-28T07:28:43;1.20;99.90
19898;DHT22;10111;50.814;4.572;2023-02-28T07:31:09;1.20;99.90
19898;DHT22;10111;50.814;4.572;2023-02-28T07:33:36;1.30;99.90
19898;DHT22;10111;50.814;4.572;2023-02-28T07:36:04;1.20;99.90
19898;DHT22;10111;50.814;4.572;2023-02-28T07:38:30;1.00;99.90
19898;DHT22;10111;50.814;4.572;2023-02-28T07:40:56;1.10;99.90
19898;DHT22;10111;50.814;4.572;2023-02-28T07:43:22;1.30;99.90
19898;DHT22;10111;50.814;4.572;2023-02-28T07:45:47;1.40;99.90
19898;DHT22;10111;50.814;4.572;2023-02-28T07:48:13;1.30;99.90
19898;DHT22;10111;50.814;4.572;2023-02-28T07:50:38;1.30;99.90
19898;DHT22;10111;50.814;4.572;2023-02-28T07:53:04;1.50;99.90
19898;DHT22;10111;50.814;4.572;2023-02-28T07:55:30;1.50;99.90
19898;DHT22;10111;50.814;4.572;2023-02-28T07:57:57;1.70;99.90
19898;DHT22;10111;50.814;4.572;2023-02-28T08:00:23;1.70;99.90
19898;DHT22;10111;50.814;4.572;2023-02-28T08:02:49;1.70;99.90
19898;DHT22;10111;50.814;4.572;2023-02-28T08:05:15;1.60;99.90
19898;DHT22;10111;50.814;4.572;2023-02-28T08:07:40;1.50;99.90
19898;DHT22;10111;50.814;4.572;2023-02-28T08:10:06;1.70;99.90
19898;DHT22;10111;50.814;4.572;2023-02-28T08:12:32;1.80;99.90
19898;DHT22;10111;50.814;4.572;2023-02-28T08:14:58;1.90;99.90
19898;DHT22;10111;50.814;4.572;2023-02-28T08:17:23;1.90;99.90
19898;DHT22;10111;50.814;4.572;2023-02-28T08:19:49;1.90;99.90
19898;DHT22;10111;50.814;4.572;2023-02-28T08:22:15;2.00;99.90
19898;DHT22;10111;50.814;4.572;2023-02-28T08:24:42;2.50;99.90
19898;DHT22;10111;50.814;4.572;2023-02-28T08:27:08;2.30;99.90
19898;DHT22;10111;50.814;4.572;2023-02-28T08:29:36;2.40;99.90
19898;DHT22;10111;50.814;4.572;2023-02-28T08:32:01;2.70;99.90
19898;DHT22;10111;50.814;4.572;2023-02-28T08:34:27;2.70;99.90
19898;DHT22;10111;50.814;4.572;2023-02-28T08:36:53;2.90;99.90
19898;DHT22;10111;50.814;4.572;2023-02-28T08:39:18;2.80;99.90
19898;DHT22;10111;50.814;4.572;2023-02-28T08:41:45;2.60;99.90
19898;DHT22;10111;50.814;4.572;2023-02-28T08:44:11;2.70;99.90
19898;DHT22;10111;50.814;4.572;2023-02-28T08:46:36;2.90;99.90
19898;DHT22;10111;50.814;4.572;2023-02-28T08:49:03;2.80;99.90
19898;DHT22;10111;50.814;4.572;2023-02-28T08:51:29;3.10;99.90
19898;DHT22;10111;50.814;4.572;2023-02-28T08:53:57;3.20;99.90
19898;DHT22;10111;50.814;4.572;2023-02-28T08:56:23;3.50;99.90
19898;DHT22;10111;50.814;4.572;2023-02-28T08:58:50;3.30;99.90
19898;DHT22;10111;50.814;4.572;2023-02-28T09:01:18;3.40;99.90
19898;DHT22;10111;50.814;4.572;2023-02-28T09:03:45;3.40;99.90
19898;DHT22;10111;50.814;4.572;2023-02-28T09:06:12;3.40;99.90
19898;DHT22;10111;50.814;4.572;2023-02-28T09:08:39;3.40;99.90
19898;DHT22;10111;50.814;4.572;2023-02-28T09:11:05;3.50;99.90
19898;DHT22;10111;50.814;4.572;2023-02-28T09:13:31;3.60;99.90
19898;DHT22;10111;50.814;4.572;2023-02-28T09:15:59;3.70;99.90
19898;DHT22;10111;50.814;4.572;2023-02-28T09:18:25;3.90;99.90
19898;DHT22;10111;50.814;4.572;2023-02-28T09:20:51;4.00;99.90
19898;DHT22;10111;50.814;4.572;2023-02-28T09:23:17;4.00;99.90
19898;DHT22;10111;50.814;4.572;2023-02-28T09:25:49;4.10;99.90
19898;DHT22;10111;50.814;4.572;2023-02-28T09:28:15;4.00;99.90
19898;DHT22;10111;50.814;4.572;2023-02-28T09:30:46;4.00;99.90
19898;DHT22;10111;50.814;4.572;2023-02-28T09:33:13;4.10;99.90
19898;DHT22;10111;50.814;4.572;2023-02-28T09:35:38;4.00;99.90
19898;DHT22;10111;50.814;4.572;2023-02-28T09:38:05;3.90;99.90
19898;DHT22;10111;50.814;4.572;2023-02-28T09:40:31;3.90;99.90
19898;DHT22;10111;50.814;4.572;2023-02-28T09:42:58;4.00;99.90
19898;DHT22;10111;50.814;4.572;2023-02-28T09:45:35;4.10;99.90
19898;DHT22;10111;50.814;4.572;2023-02-28T09:48:08;4.00;99.90
19898;DHT22;10111;50.814;4.572;2023-02-28T09:50:39;4.20;99.90
19898;DHT22;10111;50.814;4.572;2023-02-28T09:53:27;4.10;99.90
19898;DHT22;10111;50.814;4.572;2023-02-28T09:56:01;4.10;99.90
19898;DHT22;10111;50.814;4.572;2023-02-28T10:06:49;4.00;99.90
19898;DHT22;10111;50.814;4.572;2023-02-28T10:09:29;4.10;99.90
19898;DHT22;10111;50.814;4.572;2023-02-28T10:12:05;4.00;99.90
19898;DHT22;10111;50.814;4.572;2023-02-28T10:14:45;4.00;99.90
19898;DHT22;10111;50.814;4.572;2023-02-28T10:17:22;3.90;99.90
19898;DHT22;10111;50.814;4.572;2023-02-28T10:24:51;4.10;99.90
19898;DHT22;10111;50.814;4.572;2023-02-28T10:27:20;4.40;99.90
19898;DHT22;10111;50.814;4.572;2023-02-28T10:29:50;4.30;99.90
19898;DHT22;10111;50.814;4.572;2023-02-28T10:32:28;4.30;99.90
19898;DHT22;10111;50.814;4.572;2023-02-28T10:35:20;4.30;99.90
19898;DHT22;10111;50.814;4.572;2023-02-28T10:37:49;4.40;99.90
19898;DHT22;10111;50.814;4.572;2023-02-28T10:43:02;4.50;99.90
19898;DHT22;10111;50.814;4.572;2023-02-28T10:45:33;4.50;99.90
19898;DHT22;10111;50.814;4.572;2023-02-28T10:48:06;4.50;99.90
19898;DHT22;10111;50.814;4.572;2023-02-28T10:58:25;3.90;99.90
19898;DHT22;10111;50.814;4.572;2023-02-28T11:00:51;3.90;99.90
19898;DHT22;10111;50.814;4.572;2023-02-28T11:03:34;4.20;99.90
19898;DHT22;10111;50.814;4.572;2023-02-28T11:06:13;4.40;99.90
19898;DHT22;10111;50.814;4.572;2023-02-28T11:11:17;5.00;99.90
19898;DHT22;10111;50.814;4.572;2023-02-28T11:13:45;4.90;99.90
19898;DHT22;10111;50.814;4.572;2023-02-28T11:16:13;4.80;99.90
19898;DHT22;10111;50.814;4.572;2023-02-28T11:18:49;4.70;99.90
19898;DHT22;10111;50.814;4.572;2023-02-28T11:21:22;4.70;99.90
19898;DHT22;10111;50.814;4.572;2023-02-28T11:23:51;4.60;99.90
19898;DHT22;10111;50.814;4.572;2023-02-28T11:26:45;4.60;99.90
19898;DHT22;10111;50.814;4.572;2023-02-28T11:29:22;4.60;99.90
19898;DHT22;10111;50.814;4.572;2023-02-28T11:34:36;4.90;99.90
19898;DHT22;10111;50.814;4.572;2023-02-28T11:37:05;4.60;99.90
19898;DHT22;10111;50.814;4.572;2023-02-28T11:39:34;4.40;99.90
19898;DHT22;10111;50.814;4.572;2023-02-28T11:47:35;4.40;99.90
19898;DHT22;10111;50.814;4.572;2023-02-28T11:55:35;4.50;99.90
19898;DHT22;10111;50.814;4.572;2023-02-28T12:03:27;4.40;99.90
19898;DHT22;10111;50.814;4.572;2023-02-28T12:08:44;4.50;99.90
19898;DHT22;10111;50.814;4.572;2023-02-28T12:11:29;4.70;99.90
19898;DHT22;10111;50.814;4.572;2023-02-28T12:27:39;4.80;99.90
19898;DHT22;10111;50.814;4.572;2023-02-28T12:33:03;5.10;99.90
19898;DHT22;10111;50.814;4.572;2023-02-28T12:35:37;5.00;99.90
19898;DHT22;10111;50.814;4.572;2023-02-28T12:38:55;4.90;99.90
19898;DHT22;10111;50.814;4.572;2023-02-28T12:41:04;4.90;99.90
19898;DHT22;10111;50.814;4.572;2023-02-28T12:43:42;5.10;99.90
19898;DHT22;10111;50.814;4.572;2023-02-28T12:46:35;5.10;99.90
19898;DHT22;10111;50.814;4.572;2023-02-28T12:49:29;5.00;99.90
19898;DHT22;10111;50.814;4.572;2023-02-28T12:51:53;5.00;99.90
19898;DHT22;10111;50.814;4.572;2023-02-28T12:59:59;5.00;99.90
19898;DHT22;10111;50.814;4.572;2023-02-28T13:08:49;5.00;99.90
19898;DHT22;10111;50.814;4.572;2023-02-28T13:11:32;5.00;99.90
19898;DHT22;10111;50.814;4.572;2023-02-28T13:14:13;5.10;99.90
19898;DHT22;10111;50.814;4.572;2023-02-28T13:17:09;5.10;99.90
19898;DHT22;10111;50.814;4.572;2023-02-28T13:19:57;5.10;99.90
19898;DHT22;10111;50.814;4.572;2023-02-28T13:22:36;4.90;99.90
19898;DHT22;10111;50.814;4.572;2023-02-28T13:31:14;5.00;99.90
19898;DHT22;10111;50.814;4.572;2023-02-28T13:38:47;5.10;99.90
19898;DHT22;10111;50.814;4.572;2023-02-28T13:46:35;5.20;99.90
19898;DHT22;10111;50.814;4.572;2023-02-28T13:52:09;5.40;99.90
19898;DHT22;10111;50.814;4.572;2023-02-28T14:05:37;5.20;99.90
19898;DHT22;10111;50.814;4.572;2023-02-28T14:08:20;5.40;99.90
19898;DHT22;10111;50.814;4.572;2023-02-28T14:10:50;5.40;99.90
19898;DHT22;10111;50.814;4.572;2023-02-28T14:16:00;5.30;99.90
19898;DHT22;10111;50.814;4.572;2023-02-28T14:18:36;5.20;99.90
19898;DHT22;10111;50.814;4.572;2023-02-28T14:21:26;5.10;99.90
19898;DHT22;10111;50.814;4.572;2023-02-28T14:32:41;5.30;99.90
19898;DHT22;10111;50.814;4.572;2023-02-28T14:38:05;5.20;99.90
19898;DHT22;10111;50.814;4.572;2023-02-28T14:40:35;5.20;99.90
19898;DHT22;10111;50.814;4.572;2023-02-28T14:43:20;5.20;99.90
19898;DHT22;10111;50.814;4.572;2023-02-28T14:45:50;5.30;99.90
19898;DHT22;10111;50.814;4.572;2023-02-28T14:48:18;5.30;99.90
19898;DHT22;10111;50.814;4.572;2023-02-28T14:50:51;5.10;99.90
19898;DHT22;10111;50.814;4.572;2023-02-28T14:53:19;5.10;99.90
19898;DHT22;10111;50.814;4.572;2023-02-28T14:55:47;5.20;99.90
19898;DHT22;10111;50.814;4.572;2023-02-28T14:58:27;5.10;99.90
19898;DHT22;10111;50.814;4.572;2023-02-28T15:00:55;5.10;99.90
19898;DHT22;10111;50.814;4.572;2023-02-28T15:03:22;5.10;99.90
19898;DHT22;10111;50.814;4.572;2023-02-28T15:06:15;5.20;99.90
19898;DHT22;10111;50.814;4.572;2023-02-28T15:08:44;5.20;99.90
19898;DHT22;10111;50.814;4.572;2023-02-28T15:11:17;5.20;99.90
19898;DHT22;10111;50.814;4.572;2023-02-28T15:13:54;5.30;99.90
19898;DHT22;10111;50.814;4.572;2023-02-28T15:16:26;5.20;99.90
19898;DHT22;10111;50.814;4.572;2023-02-28T15:18:58;5.10;99.90
19898;DHT22;10111;50.814;4.572;2023-02-28T15:21:30;5.10;99.90
19898;DHT22;10111;50.814;4.572;2023-02-28T15:26:59;5.30;99.90
19898;DHT22;10111;50.814;4.572;2023-02-28T15:29:27;5.30;99.90
19898;DHT22;10111;50.814;4.572;2023-02-28T15:32:01;5.10;99.90
19898;DHT22;10111;50.814;4.572;2023-02-28T15:34:38;5.30;99.90
19898;DHT22;10111;50.814;4.572;2023-02-28T15:39:53;5.20;99.90
19898;DHT22;10111;50.814;4.572;2023-02-28T15:42:21;5.20;99.90
19898;DHT22;10111;50.814;4.572;2023-02-28T15:44:48;5.20;99.90
19898;DHT22;10111;50.814;4.572;2023-02-28T15:50:00;5.10;99.90
19898;DHT22;10111;50.814;4.572;2023-02-28T15:54:58;5.00;99.90
19898;DHT22;10111;50.814;4.572;2023-02-28T15:57:26;5.30;99.90
19898;DHT22;10111;50.814;4.572;2023-02-28T15:59:56;5.10;99.90
19898;DHT22;10111;50.814;4.572;2023-02-28T16:05:00;5.10;99.90
19898;DHT22;10111;50.814;4.572;2023-02-28T16:07:27;5.10;99.90
19898;DHT22;10111;50.814;4.572;2023-02-28T16:09:52;5.00;99.90
19898;DHT22;10111;50.814;4.572;2023-02-28T16:12:20;5.10;99.90
19898;DHT22;10111;50.814;4.572;2023-02-28T16:14:51;5.10;99.90
19898;DHT22;10111;50.814;4.572;2023-02-28T16:17:23;5.00;99.90
19898;DHT22;10111;50.814;4.572;2023-02-28T16:19:49;4.90;99.90
19898;DHT22;10111;50.814;4.572;2023-02-28T16:22:15;4.80;99.90
19898;DHT22;10111;50.814;4.572;2023-02-28T16:24:40;4.80;99.90
19898;DHT22;10111;50.814;4.572;2023-02-28T16:27:09;4.80;99.90
19898;DHT22;10111;50.814;4.572;2023-02-28T16:29:39;4.80;99.90
19898;DHT22;10111;50.814;4.572;2023-02-28T16:32:06;4.90;99.90
19898;DHT22;10111;50.814;4.572;2023-02-28T16:34:32;5.00;99.90
19898;DHT22;10111;50.814;4.572;2023-02-28T16:36:57;5.00;99.90
19898;DHT22;10111;50.814;4.572;2023-02-28T16:39:24;4.90;99.90
19898;DHT22;10111;50.814;4.572;2023-02-28T16:41:50;4.80;99.90
19898;DHT22;10111;50.814;4.572;2023-02-28T16:44:29;4.90;99.90
19898;DHT22;10111;50.814;4.572;2023-02-28T16:46:56;4.70;99.90
19898;DHT22;10111;50.814;4.572;2023-02-28T16:49:24;4.70;99.90
19898;DHT22;10111;50.814;4.572;2023-02-28T16:51:50;4.80;99.90
19898;DHT22;10111;50.814;4.572;2023-02-28T16:54:15;4.90;99.90
19898;DHT22;10111;50.814;4.572;2023-02-28T16:56:44;5.00;99.90
19898;DHT22;10111;50.814;4.572;2023-02-28T16:59:11;4.90;99.90
19898;DHT22;10111;50.814;4.572;2023-02-28T17:01:37;4.70;99.90
19898;DHT22;10111;50.814;4.572;2023-02-28T17:04:02;4.60;99.90
19898;DHT22;10111;50.814;4.572;2023-02-28T17:06:29;4.60;99.90
19898;DHT22;10111;50.814;4.572;2023-02-28T17:08:56;4.50;99.90
19898;DHT22;10111;50.814;4.572;2023-02-28T17:11:23;4.40;99.90
19898;DHT22;10111;50.814;4.572;2023-02-28T17:13:49;4.40;99.90
19898;DHT22;10111;50.814;4.572;2023-02-28T17:16:32;4.40;99.90
19898;DHT22;10111;50.814;4.572;2023-02-28T17:19:01;4.40;99.90
19898;DHT22;10111;50.814;4.572;2023-02-28T17:21:27;4.40;99.90
19898;DHT22;10111;50.814;4.572;2023-02-28T17:23:53;4.40;99.90
19898;DHT22;10111;50.814;4.572;2023-02-28T17:26:21;4.40;99.90
19898;DHT22;10111;50.814;4.572;2023-02-28T17:28:48;4.40;99.90
19898;DHT22;10111;50.814;4.572;2023-02-28T17:31:14;4.30;99.90
19898;DHT22;10111;50.814;4.572;2023-02-28T17:33:40;4.30;99.90
19898;DHT22;10111;50.814;4.572;2023-02-28T17:36:12;4.10;99.90
19898;DHT22;10111;50.814;4.572;2023-02-28T17:38:38;4.10;99.90
19898;DHT22;10111;50.814;4.572;2023-02-28T17:41:04;4.00;99.90
19898;DHT22;10111;50.814;4.572;2023-02-28T17:43:30;3.80;99.90
19898;DHT22;10111;50.814;4.572;2023-02-28T17:45:55;3.70;99.90
19898;DHT22;10111;50.814;4.572;2023-02-28T17:48:21;3.70;99.90
19898;DHT22;10111;50.814;4.572;2023-02-28T17:50:47;3.60;99.90
19898;DHT22;10111;50.814;4.572;2023-02-28T17:53:13;3.60;99.90
19898;DHT22;10111;50.814;4.572;2023-02-28T17:55:38;3.50;99.90
19898;DHT22;10111;50.814;4.572;2023-02-28T17:58:05;3.40;99.90
19898;DHT22;10111;50.814;4.572;2023-02-28T18:00:31;3.30;99.90
19898;DHT22;10111;50.814;4.572;2023-02-28T18:02:59;3.30;99.90
19898;DHT22;10111;50.814;4.572;2023-02-28T18:05:25;3.30;99.90
19898;DHT22;10111;50.814;4.572;2023-02-28T18:07:51;3.30;99.90
19898;DHT22;10111;50.814;4.572;2023-02-28T18:10:20;3.20;99.90
19898;DHT22;10111;50.814;4.572;2023-02-28T18:12:48;3.10;99.90
19898;DHT22;10111;50.814;4.572;2023-02-28T18:15:15;3.00;99.90
19898;DHT22;10111;50.814;4.572;2023-02-28T18:17:42;2.90;99.90
19898;DHT22;10111;50.814;4.572;2023-02-28T18:20:10;2.80;99.90
19898;DHT22;10111;50.814;4.572;2023-02-28T18:22:36;2.80;99.90
19898;DHT22;10111;50.814;4.572;2023-02-28T18:25:04;2.70;99.90
19898;DHT22;10111;50.814;4.572;2023-02-28T18:27:30;2.60;99.90
19898;DHT22;10111;50.814;4.572;2023-02-28T18:29:56;2.70;99.90
19898;DHT22;10111;50.814;4.572;2023-02-28T18:32:21;2.70;99.90
19898;DHT22;10111;50.814;4.572;2023-02-28T18:34:47;2.90;99.90
19898;DHT22;10111;50.814;4.572;2023-02-28T18:37:13;3.00;99.90
19898;DHT22;10111;50.814;4.572;2023-02-28T18:39:40;2.90;99.90
19898;DHT22;10111;50.814;4.572;2023-02-28T18:42:06;3.00;99.90
19898;DHT22;10111;50.814;4.572;2023-02-28T18:44:31;3.00;99.90